Flight Track Log - Related Links

Times and Time Zones

All times are in EDT time to prevent confusion due to time zone crossing. See the FDX1347 flight status page for this flight to view local times or setup timezone preferences in your user account.

Time Position Orientation Groundspeed Altitude Reporting Facility
EDT Latitude Longitude Course Direction KTS MPH feet Rate Location/Type
Fri 10:55:19 PM 42.7297 -73.8081 222° Southwest 166 191 1,300  Level Boston Center
Fri 10:56:44 PM 42.6917 -73.8553 222° Southwest 175 201 3,700 2,546 Climbing Boston Center
Fri 11:02:35 PM 42.6860 -74.5790 222° Southwest 392 451 19,800 2,697 Climbing FlightAware ADS-B
Fri 11:03:20 PM 42.6840 -74.6960 269° West 402 463 21,500 2,051 Climbing FlightAware ADS-B
Fri 11:03:54 PM 42.6820 -74.7830 268° West 410 472 22,500 1,846 Climbing FlightAware ADS-B
Fri 11:04:38 PM 42.6740 -74.8950 264° West 415 478 23,900 1,829 Climbing FlightAware ADS-B
Fri 11:05:16 PM 42.6640 -74.9960 262° West 423 487 25,000 1,683 Climbing FlightAware ADS-B
Fri 11:06:00 PM 42.6530 -75.1110 263° West 431 496 26,200 1,568 Climbing FlightAware ADS-B
Fri 11:06:44 PM 42.6410 -75.2330 262° West 440 506 27,300 1,429 Climbing FlightAware ADS-B
Fri 11:07:24 PM 42.6300 -75.3410 262° West 449 517 28,200 1,538 Climbing FlightAware ADS-B
Fri 11:08:02 PM 42.6190 -75.4470 262° West 447 514 29,300 2,000 Climbing FlightAware ADS-B
Fri 11:08:42 PM 42.6080 -75.5600 263° West 437 503 30,800 1,976 Climbing FlightAware ADS-B
Fri 11:09:24 PM 42.5970 -75.6700 262° West 427 491 32,000 878 Climbing FlightAware ADS-B
Fri 11:10:04 PM 42.5860 -75.7770 262° West 422 486 32,000 79 Level FlightAware ADS-B
Fri 11:10:40 PM 42.5760 -75.8720 262° West 428 493 32,100 1,121 Climbing FlightAware ADS-B
Fri 11:11:35 PM 42.5620 -76.0070 262° West 423 487 33,700 1,768 Climbing FlightAware ADS-B
Fri 11:12:15 PM 42.5510 -76.1080 262° West 416 479 34,900 2,047 Climbing FlightAware ADS-B
Fri 11:13:00 PM 42.5380 -76.2240 261° West 401 461 36,600 1,744 Climbing FlightAware ADS-B
Fri 11:13:41 PM 42.5280 -76.3230 262° West 399 459 37,400 988 Climbing FlightAware ADS-B
Fri 11:14:25 PM 42.5160 -76.4350 262° West 404 465 38,000 786 Climbing FlightAware ADS-B
Fri 11:15:05 PM 42.5050 -76.5330 261° West 409 471 38,500 800 Climbing FlightAware ADS-B
Fri 11:15:40 PM 42.4950 -76.6250 262° West 410 472 39,000 880 Climbing FlightAware ADS-B
Fri 11:16:20 PM 42.4830 -76.7260 261° West 408 470 39,600 706 Climbing FlightAware ADS-B
Fri 11:17:05 PM 42.4710 -76.8370 262° West 408 470 40,000 253 Climbing FlightAware ADS-B
Fri 11:17:55 PM 42.4560 -76.9670 261° West 413 475 40,000  Level FlightAware ADS-B
Fri 11:18:35 PM 42.4450 -77.0660 261° West 415 478 40,000  Level FlightAware ADS-B
Fri 11:19:15 PM 42.4330 -77.1710 261° West 413 475 40,000  Level FlightAware ADS-B
Fri 11:19:55 PM 42.4210 -77.2730 261° West 411 473 40,000  Level FlightAware ADS-B
Fri 11:20:40 PM 42.4080 -77.3840 261° West 409 471 40,000  Level FlightAware ADS-B
Fri 11:21:20 PM 42.3960 -77.4850 261° West 407 468 40,000  Level FlightAware ADS-B
Fri 11:22:05 PM 42.3820 -77.5970 260° West 406 467 40,000  Level FlightAware ADS-B
Fri 11:22:45 PM 42.3700 -77.6970 261° West 404 465 40,000  Level FlightAware ADS-B
Fri 11:23:25 PM 42.3580 -77.7970 261° West 404 465 40,000  Level FlightAware ADS-B
Fri 11:24:10 PM 42.3440 -77.9090 260° West 404 465 40,000  Level FlightAware ADS-B
Fri 11:24:50 PM 42.3320 -78.0110 261° West 403 464 40,000  Level FlightAware ADS-B
Fri 11:25:35 PM 42.3180 -78.1200 260° West 402 463 40,000  Level FlightAware ADS-B
Fri 11:26:10 PM 42.3070 -78.2090 261° West 401 461 40,000  Level FlightAware ADS-B
Fri 11:26:50 PM 42.2940 -78.3070 260° West 398 458 40,000  Level FlightAware ADS-B
Fri 11:27:35 PM 42.2810 -78.4130 261° West 387 445 40,000  Level FlightAware ADS-B
Fri 11:28:17 PM 42.2700 -78.5070 261° West 379 436 40,000  Level FlightAware ADS-B
Fri 11:29:00 PM 42.2560 -78.6100 260° West 373 429 40,000  Level FlightAware ADS-B
Fri 11:29:40 PM 42.2410 -78.6990 257° West 377 434 40,000  Level FlightAware ADS-B
Fri 11:30:20 PM 42.2030 -78.7820 238° Southwest 381 438 40,000  Level FlightAware ADS-B
Fri 11:31:05 PM 42.1670 -78.8740 242° Southwest 381 438 40,000 -150 Level FlightAware ADS-B
Fri 11:31:40 PM 42.1390 -78.9510 244° Southwest 377 434 39,800 -560 Descending FlightAware ADS-B
Fri 11:32:20 PM 42.1090 -79.0320 243° Southwest 372 428 39,300 -1,200 Descending FlightAware ADS-B
Fri 11:33:05 PM 42.0720 -79.1280 243° Southwest 393 452 38,100 -918 Descending FlightAware ADS-B
Fri 11:33:45 PM 42.0350 -79.2130 240° Southwest 400 460 38,000 -75 Descending FlightAware ADS-B
Fri 11:34:25 PM 41.9990 -79.3010 241° Southwest 396 456 38,000  Level FlightAware ADS-B
Fri 11:35:10 PM 41.9580 -79.3990 241° Southwest 392 451 38,000  Level FlightAware ADS-B
Fri 11:35:50 PM 41.9230 -79.4820 240° Southwest 392 451 38,000  Level FlightAware ADS-B
Fri 11:36:30 PM 41.8870 -79.5670 240° Southwest 391 450 38,000  Level FlightAware ADS-B
Fri 11:37:05 PM 41.8570 -79.6380 240° Southwest 389 448 38,000  Level FlightAware ADS-B
Fri 11:37:50 PM 41.8160 -79.7370 241° Southwest 387 445 38,000  Level FlightAware ADS-B
Fri 11:38:30 PM 41.7830 -79.8140 240° Southwest 386 444 38,000  Level FlightAware ADS-B
Fri 11:39:10 PM 41.7450 -79.9010 240° Southwest 385 443 38,000  Level FlightAware ADS-B
Fri 11:39:50 PM 41.7100 -79.9830 240° Southwest 384 442 38,000  Level FlightAware ADS-B
Fri 11:40:30 PM 41.6770 -80.0620 241° Southwest 384 442 38,000  Level FlightAware ADS-B
Fri 11:41:10 PM 41.6390 -80.1510 240° Southwest 384 442 38,000  Level FlightAware ADS-B
Fri 11:41:55 PM 41.6000 -80.2420 240° Southwest 386 444 38,000  Level FlightAware ADS-B
Fri 11:42:35 PM 41.5640 -80.3240 240° Southwest 387 445 38,000  Level FlightAware ADS-B
Fri 11:43:20 PM 41.5240 -80.4180 240° Southwest 389 448 38,000  Level FlightAware ADS-B
Fri 11:43:55 PM 41.4920 -80.4910 240° Southwest 391 450 38,000  Level FlightAware ADS-B
Fri 11:44:35 PM 41.4560 -80.5720 239° Southwest 391 450 38,000  Level FlightAware ADS-B
Fri 11:45:15 PM 41.4190 -80.6580 240° Southwest 392 451 38,000  Level FlightAware ADS-B
Fri 11:45:50 PM 41.3880 -80.7290 240° Southwest 394 453 38,000  Level FlightAware ADS-B
Fri 11:46:35 PM 41.3480 -80.8210 240° Southwest 394 453 38,000  Level FlightAware ADS-B
Fri 11:47:15 PM 41.3090 -80.9090 239° Southwest 394 453 38,000  Level FlightAware ADS-B
Fri 11:48:00 PM 41.2660 -81.0070 240° Southwest 395 455 38,000  Level FlightAware ADS-B
Fri 11:48:40 PM 41.2270 -81.0950 240° Southwest 394 453 38,000  Level FlightAware ADS-B
Fri 11:49:26 PM 41.1840 -81.1910 239° Southwest 393 452 38,000  Level FlightAware ADS-B
Fri 11:50:06 PM 41.1470 -81.2740 239° Southwest 392 451 38,000  Level FlightAware ADS-B
Fri 11:50:42 PM 41.1140 -81.3480 239° Southwest 391 450 38,000  Level FlightAware ADS-B
Fri 11:51:22 PM 41.0790 -81.4260 239° Southwest 390 449 38,000  Level FlightAware ADS-B
Fri 11:52:06 PM 41.0360 -81.5210 239° Southwest 389 448 38,000  Level FlightAware ADS-B
Fri 11:52:38 PM 41.0090 -81.5820 240° Southwest 389 448 38,000  Level FlightAware ADS-B
Fri 11:53:22 PM 40.9670 -81.6740 239° Southwest 388 447 38,000  Level FlightAware ADS-B
Fri 11:54:16 PM 40.9160 -81.7860 239° Southwest 387 445 38,000  Level FlightAware ADS-B
Fri 11:55:00 PM 40.8750 -81.8780 240° Southwest 389 448 38,000  Level FlightAware ADS-B
Fri 11:55:38 PM 40.8410 -81.9530 239° Southwest 389 448 38,000  Level FlightAware ADS-B
Fri 11:56:24 PM 40.7980 -82.0460 239° Southwest 388 447 38,000  Level FlightAware ADS-B
Fri 11:57:04 PM 40.7600 -82.1300 239° Southwest 388 447 38,000  Level FlightAware ADS-B
Fri 11:57:40 PM 40.7270 -82.2010 238° Southwest 388 447 38,000  Level FlightAware ADS-B
Fri 11:58:24 PM 40.6860 -82.2900 239° Southwest 388 447 38,000  Level FlightAware ADS-B
Fri 11:59:04 PM 40.6480 -82.3710 238° Southwest 388 447 38,000  Level FlightAware ADS-B
Fri 11:59:40 PM 40.6150 -82.4430 239° Southwest 387 445 38,000  Level FlightAware ADS-B
Sat 12:00:19 AM 40.5780 -82.5220 238° Southwest 387 445 38,000  Level FlightAware ADS-B
Sat 12:01:04 AM 40.5370 -82.6100 239° Southwest 386 444 38,000  Level FlightAware ADS-B
Sat 12:01:48 AM 40.4950 -82.7000 238° Southwest 386 444 38,000  Level FlightAware ADS-B
Sat 12:02:28 AM 40.4580 -82.7800 239° Southwest 385 443 38,000  Level FlightAware ADS-B
Sat 12:03:12 AM 40.4170 -82.8670 238° Southwest 385 443 38,000  Level FlightAware ADS-B
Sat 12:03:50 AM 40.3820 -82.9430 239° Southwest 385 443 38,000  Level FlightAware ADS-B
Sat 12:04:30 AM 40.3440 -83.0220 238° Southwest 384 442 38,000  Level FlightAware ADS-B
Sat 12:05:10 AM 40.3070 -83.1010 238° Southwest 384 442 38,000  Level FlightAware ADS-B
Sat 12:05:50 AM 40.2700 -83.1790 238° Southwest 384 442 38,000  Level FlightAware ADS-B
Sat 12:06:30 AM 40.2340 -83.2560 239° Southwest 384 442 38,000  Level FlightAware ADS-B
Sat 12:07:06 AM 40.1980 -83.3300 238° Southwest 384 442 38,000  Level FlightAware ADS-B
Sat 12:07:50 AM 40.1570 -83.4170 238° Southwest 384 442 38,000  Level FlightAware ADS-B
Sat 12:08:30 AM 40.1180 -83.4970 238° Southwest 384 442 38,000  Level FlightAware ADS-B
Sat 12:09:16 AM 40.0750 -83.5880 238° Southwest 384 442 38,000  Level FlightAware ADS-B
Sat 12:09:58 AM 40.0350 -83.6680 237° Southwest 384 442 38,000  Level FlightAware ADS-B
Sat 12:10:38 AM 39.9970 -83.7490 239° Southwest 384 442 38,000  Level FlightAware ADS-B
Sat 12:10:58 AM 39.9790 -83.7860 238° Southwest 384 442 38,000  Level FlightAware ADS-B
Sat 12:11:40 AM 39.9390 -83.8680 238° Southwest 384 442 38,000  Level FlightAware ADS-B
Sat 12:12:20 AM 39.9000 -83.9480 238° Southwest 384 442 38,000  Level FlightAware ADS-B
Sat 12:13:04 AM 39.8590 -84.0320 238° Southwest 384 442 38,000  Level FlightAware ADS-B
Sat 12:13:40 AM 39.8240 -84.1030 237° Southwest 383 441 38,000  Level FlightAware ADS-B
Sat 12:14:20 AM 39.7860 -84.1820 238° Southwest 383 441 38,000  Level FlightAware ADS-B
Sat 12:14:58 AM 39.7500 -84.2540 237° Southwest 383 441 38,000  Level FlightAware ADS-B
Sat 12:16:12 AM 39.6860 -84.3840 237° Southwest 383 441 38,000  Level FlightAware ADS-B
Sat 12:16:54 AM 39.6400 -84.4790 238° Southwest 382 440 38,000  Level FlightAware ADS-B
Sat 12:17:36 AM 39.5990 -84.5620 237° Southwest 382 440 38,000  Level FlightAware ADS-B
Sat 12:18:13 AM 39.5640 -84.6310 237° Southwest 382 440 38,000  Level FlightAware ADS-B
Sat 12:19:00 AM 39.5190 -84.7220 237° Southwest 381 438 38,000  Level FlightAware ADS-B
Sat 12:19:39 AM 39.4810 -84.7960 236° Southwest 381 438 38,000  Level FlightAware ADS-B
Sat 12:20:25 AM 39.4370 -84.8850 237° Southwest 381 438 38,000  Level FlightAware ADS-B
Sat 12:21:01 AM 39.4030 -84.9520 237° Southwest 382 440 38,000  Level FlightAware ADS-B
Sat 12:21:47 AM 39.3590 -85.0400 237° Southwest 382 440 38,000  Level FlightAware ADS-B
Sat 12:22:27 AM 39.3190 -85.1190 237° Southwest 383 441 38,000  Level FlightAware ADS-B
Sat 12:23:13 AM 39.2740 -85.2090 237° Southwest 383 441 38,000  Level FlightAware ADS-B
Sat 12:23:53 AM 39.2360 -85.2830 236° Southwest 383 441 38,000  Level FlightAware ADS-B
Sat 12:24:35 AM 39.1960 -85.3640 238° Southwest 383 441 38,000  Level FlightAware ADS-B
Sat 12:25:15 AM 39.1560 -85.4400 236° Southwest 384 442 38,000  Level FlightAware ADS-B
Sat 12:26:00 AM 39.1140 -85.5230 237° Southwest 385 443 38,000  Level FlightAware ADS-B
Sat 12:26:40 AM 39.0740 -85.6030 237° Southwest 385 443 38,000  Level FlightAware ADS-B
Sat 12:27:24 AM 39.0300 -85.6870 236° Southwest 384 442 38,000  Level FlightAware ADS-B
Sat 12:28:06 AM 38.9880 -85.7690 237° Southwest 384 442 38,000  Level FlightAware ADS-B
Sat 12:28:48 AM 38.9480 -85.8470 237° Southwest 384 442 38,000  Level FlightAware ADS-B
Sat 12:29:30 AM 38.9060 -85.9290 237° Southwest 383 441 38,000  Level FlightAware ADS-B
Sat 12:29:53 AM 38.8840 -85.9700 235° Southwest 383 441 38,000  Level FlightAware ADS-B
Sat 12:30:59 AM 38.8190 -86.0930 236° Southwest 383 441 38,000  Level FlightAware ADS-B
Sat 12:31:45 AM 38.7740 -86.1820 237° Southwest 380 437 38,000  Level FlightAware ADS-B
Sat 12:32:25 AM 38.7350 -86.2560 236° Southwest 389 448 38,000  Level FlightAware ADS-B
Sat 12:33:11 AM 38.6880 -86.3440 236° Southwest 394 453 38,000  Level FlightAware ADS-B
Sat 12:33:48 AM 38.6500 -86.4180 237° Southwest 395 455 38,000  Level FlightAware ADS-B
Sat 12:34:33 AM 38.6030 -86.5080 236° Southwest 396 456 38,000  Level FlightAware ADS-B
Sat 12:35:15 AM 38.5600 -86.5870 235° Southwest 394 453 38,000  Level FlightAware ADS-B
Sat 12:36:00 AM 38.5150 -86.6740 237° Southwest 394 453 38,000  Level FlightAware ADS-B
Sat 12:36:41 AM 38.4720 -86.7550 236° Southwest 395 455 38,000  Level FlightAware ADS-B
Sat 12:37:23 AM 38.4290 -86.8350 236° Southwest 389 448 38,000  Level FlightAware ADS-B
Sat 12:38:04 AM 38.3880 -86.9110 235° Southwest 384 442 38,000  Level FlightAware ADS-B
Sat 12:38:40 AM 38.3520 -86.9800 236° Southwest 384 442 38,000  Level FlightAware ADS-B
Sat 12:39:21 AM 38.3120 -87.0550 236° Southwest 384 442 38,000  Level FlightAware ADS-B
Sat 12:40:06 AM 38.2670 -87.1380 235° Southwest 382 440 38,000  Level FlightAware ADS-B
Sat 12:40:46 AM 38.2260 -87.2150 236° Southwest 384 442 38,000  Level FlightAware ADS-B
Sat 12:41:27 AM 38.1860 -87.2890 235° Southwest 385 443 38,000  Level FlightAware ADS-B
Sat 12:42:08 AM 38.1440 -87.3660 235° Southwest 387 445 38,000  Level FlightAware ADS-B
Sat 12:42:48 AM 38.1030 -87.4410 235° Southwest 386 444 38,000  Level FlightAware ADS-B
Sat 12:43:36 AM 38.0540 -87.5330 236° Southwest 388 447 38,000  Level FlightAware ADS-B
Sat 12:44:18 AM 38.0110 -87.6110 235° Southwest 387 445 38,000  Level FlightAware ADS-B
Sat 12:44:54 AM 37.9750 -87.6770 235° Southwest 386 444 38,000  Level FlightAware ADS-B
Sat 12:46:00 AM 37.8950 -87.7830 226° Southwest 373 429 38,000  Level FlightAware ADS-B
Sat 12:46:44 AM 37.8260 -87.8260 206° Southwest 372 428 38,000  Level FlightAware ADS-B
Sat 12:47:23 AM 37.7680 -87.8600 205° Southwest 372 428 38,000  Level FlightAware ADS-B
Sat 12:48:06 AM 37.6990 -87.9020 206° Southwest 371 427 38,000  Level FlightAware ADS-B
Sat 12:48:42 AM 37.6440 -87.9350 205° Southwest 369 425 38,000  Level FlightAware ADS-B
Sat 12:49:23 AM 37.5820 -87.9740 206° Southwest 364 419 38,000  Level FlightAware ADS-B
Sat 12:50:03 AM 37.5260 -88.0200 213° Southwest 360 414 38,000  Level FlightAware ADS-B
Sat 12:50:40 AM 37.4770 -88.0690 218° Southwest 362 417 38,000  Level FlightAware ADS-B
Sat 12:51:20 AM 37.4410 -88.1410 238° Southwest 377 434 38,000 -72 Level FlightAware ADS-B
Sat 12:52:03 AM 37.4060 -88.2230 242° Southwest 375 432 37,900 -682 Descending FlightAware ADS-B
Sat 12:52:48 AM 37.3680 -88.3130 242° Southwest 378 435 37,000 -1,500 Descending FlightAware ADS-B
Sat 12:53:27 AM 37.3360 -88.3880 242° Southwest 390 449 35,800 -1,429 Descending FlightAware ADS-B
Sat 12:54:12 AM 37.2950 -88.4810 241° Southwest 405 466 35,000 -565 Descending FlightAware ADS-B
Sat 12:54:52 AM 37.2460 -88.5480 227° Southwest 392 451 35,000  Level FlightAware ADS-B
Sat 12:55:31 AM 37.1950 -88.5950 216° Southwest 389 448 35,000  Level FlightAware ADS-B
Sat 12:56:01 AM 37.1510 -88.6310 213° Southwest 389 448 35,000  Level FlightAware ADS-B
Sat 12:56:49 AM 37.0910 -88.6820 214° Southwest 389 448 35,000  Level FlightAware ADS-B
Sat 12:57:25 AM 37.0450 -88.7210 214° Southwest 389 448 35,000  Level FlightAware ADS-B
Sat 12:58:23 AM 36.9710 -88.7830 214° Southwest 389 448 35,000  Level FlightAware ADS-B
Sat 12:58:59 AM 36.9260 -88.8210 214° Southwest 389 448 35,000 -2,400 Level FlightAware ADS-B
Sat 12:59:38 AM 36.8080 -88.9210 214° Southwest 412 474 32,000 -2,250 Descending FlightAware ADS-B
Sat 01:00:19 AM 36.7530 -88.9670 214° Southwest 412 474 32,000  Level FlightAware ADS-B
Sat 01:01:07 AM 36.6880 -89.0210 214° Southwest 412 474 32,000  Level FlightAware ADS-B
Sat 01:01:44 AM 36.6390 -89.0630 215° Southwest 412 474 32,000  Level FlightAware ADS-B
Sat 01:02:32 AM 36.5740 -89.1170 214° Southwest 412 474 32,000  Level FlightAware ADS-B
Sat 01:03:08 AM 36.5260 -89.1580 214° Southwest 412 474 32,000  Level FlightAware ADS-B
Sat 01:03:56 AM 36.4610 -89.2120 214° Southwest 412 474 32,000  Level FlightAware ADS-B
Sat 01:04:32 AM 36.4130 -89.2520 214° Southwest 412 474 32,000  Level FlightAware ADS-B
Sat 01:05:20 AM 36.3480 -89.3060 214° Southwest 412 474 32,000  Level FlightAware ADS-B
Sat 01:06:09 AM 36.2830 -89.3620 215° Southwest 412 474 32,000  Level FlightAware ADS-B
Sat 01:06:45 AM 36.2340 -89.4020 213° Southwest 412 474 32,000  Level FlightAware ADS-B
Sat 01:07:46 AM 36.1520 -89.4700 214° Southwest 412 474 32,000  Level FlightAware ADS-B
Sat 01:08:22 AM 36.1040 -89.5110 215° Southwest 412 474 32,000  Level FlightAware ADS-B
Sat 01:09:25 AM 36.0190 -89.5810 214° Southwest 412 474 32,000 -13,052 Level FlightAware ADS-B
Sat 01:09:59 AM 35.8667 -89.7000 214° Southwest 323 372 10,900 -13,333 Descending KMEM
Sat 01:11:04 AM 35.8000 -89.7667 219° Southwest 285 328 10,000 -432 Descending KMEM
Sat 01:12:04 AM 35.7333 -89.8167 211° Southwest 282 325 10,000 -500 Level KMEM
Sat 01:13:04 AM 35.6500 -89.8500 198° South 284 327 9,000 -1,179 Descending KMEM
Sat 01:14:01 AM 35.6000 -89.9000 219° Southwest 278 320 7,700 -1,316 Descending KMEM
Sat 01:14:58 AM 35.5333 -89.9500 211° Southwest 274 315 6,500 -1,250 Descending KMEM
Sat 01:16:01 AM 35.4667 -89.9833 202° Southwest 265 305 5,200 -1,163 Descending KMEM
Sat 01:17:07 AM 35.3833 -90.0333 206° Southwest 256 295 4,000 -497 Descending KMEM
Sat 01:18:26 AM 35.3117 -90.0694 202° Southwest 249 287 4,000 -48 Level Memphis Center
Sat 01:19:13 AM 35.2667 -90.0833 194° South 205 236 3,900 -571 Descending KMEM
Sat 01:20:11 AM 35.2167 -90.1167 209° Southwest 208 239 3,000 -605 Descending KMEM
Sat 01:21:12 AM 35.1667 -90.1500 209° Southwest 183 211 2,700 -492 Descending KMEM
Sat 01:22:13 AM 35.1167 -90.1667 195° South 169 194 2,000 -290 Descending KMEM
Sat 01:23:16 AM 35.0667 -90.1500 165° South 173 199 2,100  Climbing KMEM
Sat 01:24:19 AM 35.0667 -90.1000 90° East 177 204 2,000 -443 Descending KMEM
Sat 01:25:18 AM 35.0667 -90.0500 90° East 130 150 1,200 -667 Descending KMEM
Sat 01:26:16 AM 35.0667 -90.0000 90° East 102 117 700 -517 Descending KMEM
Sat 01:28:00 AM 35.0424 -89.9767 128° Southeast  Level Estimated
Sat 01:35:00 AM 35.0424 -89.9767 128° Southeast  Level Estimated
Sat 01:36:00 AM 35.0424 -89.9767 128° Southeast  Level Estimated
Sat 01:37:00 AM 35.0424 -89.9767 128° Southeast  Level Estimated
Sat 01:38:00 AM 35.0424 -89.9767 128° Southeast  Level Estimated
Sat 01:39:00 AM 35.0424 -89.9767 128° Southeast  Level Estimated
Sat 01:40:00 AM 35.0424 -89.9767 128° Southeast  Level Estimated
Sat 01:41:00 AM 35.0424 -89.9767 128° Southeast  Level Estimated

Login

Don't have an account? Register now (free) for customized features, flight alerts, and more!